Time;durP1;ratioP1;P1;durP2;ratioP2;P2;SDS_P1;SDS_P2;PMS_P1;PMS_P2;Temp;Humidity;BMP_temperature;BMP_pressure;BME280_temperature;BME280_humidity;BME280_pressure;Samples;Min_cycle;Max_cycle;Signal;HPM_P1;HPM_P2
2021/05/24 00:00:17;;;;;;;1.13;0.90;;;10.40;99.90;;;;;;5048233;28;20201;-78
2021/05/24 00:02:43;;;;;;;1.47;1.00;;;10.40;99.90;;;;;;5048374;28;20180;-78
2021/05/24 00:05:11;;;;;;;1.47;0.80;;;10.40;99.90;;;;;;5050981;28;20184;-78
2021/05/24 00:07:38;;;;;;;1.10;0.90;;;10.40;99.90;;;;;;5051609;28;20455;-78
2021/05/24 00:10:05;;;;;;;0.97;0.80;;;10.40;99.90;;;;;;5051615;28;20643;-78
2021/05/24 00:12:31;;;;;;;1.57;0.80;;;10.40;99.90;;;;;;5050763;28;20388;-79
2021/05/24 00:14:56;;;;;;;3.03;1.00;;;10.40;99.90;;;;;;5050895;28;20186;-78
2021/05/24 00:17:22;;;;;;;0.70;0.70;;;10.40;99.90;;;;;;5067142;28;20204;-78
2021/05/24 00:19:48;;;;;;;1.57;0.60;;;10.40;99.90;;;;;;5050187;28;20246;-78
2021/05/24 00:22:14;;;;;;;1.30;0.80;;;10.40;99.90;;;;;;5049887;28;20199;-78
2021/05/24 00:24:39;;;;;;;0.67;0.67;;;10.40;99.90;;;;;;5083143;28;20176;-78
2021/05/24 00:27:05;;;;;;;1.83;0.90;;;10.40;99.90;;;;;;5067131;28;20200;-79
2021/05/24 00:29:31;;;;;;;2.83;0.80;;;10.40;99.90;;;;;;5049655;28;20210;-78
2021/05/24 00:31:57;;;;;;;0.77;0.70;;;10.40;99.90;;;;;;5048470;28;20188;-79
2021/05/24 00:34:23;;;;;;;1.10;0.80;;;10.40;99.90;;;;;;5047694;28;20179;-78
2021/05/24 00:36:52;;;;;;;1.00;0.83;;;10.30;99.90;;;;;;5049212;28;20180;-78
2021/05/24 00:39:18;;;;;;;1.00;0.60;;;10.30;99.90;;;;;;5050138;28;20252;-78
2021/05/24 00:41:44;;;;;;;0.70;0.70;;;10.30;99.90;;;;;;5048036;28;20749;-79
2021/05/24 00:44:10;;;;;;;1.33;0.67;;;10.20;99.90;;;;;;5064050;28;20295;-78
2021/05/24 00:46:36;;;;;;;1.43;0.70;;;10.30;99.90;;;;;;5048260;28;20572;-79
2021/05/24 00:49:03;;;;;;;1.33;0.80;;;10.20;99.90;;;;;;5062900;28;20208;-78
2021/05/24 00:51:29;;;;;;;0.80;0.80;;;10.20;99.90;;;;;;5045188;28;20205;-78
2021/05/24 00:53:55;;;;;;;1.03;0.70;;;10.10;99.90;;;;;;5063977;28;20176;-78
2021/05/24 00:56:22;;;;;;;1.23;0.70;;;10.10;99.90;;;;;;5061962;28;20169;-78
2021/05/24 00:58:47;;;;;;;1.63;0.70;;;10.00;99.90;;;;;;5045271;28;20181;-78
2021/05/24 01:01:13;;;;;;;1.27;0.77;;;10.00;99.90;;;;;;5045260;28;20207;-78
2021/05/24 01:03:39;;;;;;;0.77;0.77;;;10.00;99.90;;;;;;5061482;28;20314;-78
2021/05/24 01:06:05;;;;;;;0.53;0.50;;;10.00;99.90;;;;;;5062258;28;20176;-78
2021/05/24 01:08:30;;;;;;;1.20;0.60;;;10.00;99.90;;;;;;5044853;28;20344;-78
2021/05/24 01:10:56;;;;;;;0.50;0.50;;;10.00;99.90;;;;;;5062240;28;20197;-78
2021/05/24 01:13:22;;;;;;;2.13;0.87;;;10.00;99.90;;;;;;5062058;28;20204;-78
2021/05/24 01:15:47;;;;;;;0.80;0.70;;;10.00;99.90;;;;;;5045100;28;20262;-78
2021/05/24 01:18:13;;;;;;;0.77;0.77;;;9.90;99.90;;;;;;5061989;28;20201;-78
2021/05/24 01:20:38;;;;;;;1.27;0.80;;;9.90;99.90;;;;;;5061581;28;20359;-78
2021/05/24 01:25:32;;;;;;;0.80;0.80;;;9.90;99.90;;;;;;5061887;28;20177;-78
2021/05/24 01:27:58;;;;;;;1.97;0.70;;;9.90;99.90;;;;;;5062082;28;20208;-78
2021/05/24 01:30:24;;;;;;;1.17;0.77;;;9.90;99.90;;;;;;5045197;28;20259;-78
2021/05/24 01:32:49;;;;;;;1.00;0.73;;;10.00;99.90;;;;;;5044889;28;20180;-78
2021/05/24 01:35:15;;;;;;;1.20;0.70;;;9.90;99.90;;;;;;5061395;28;20272;-78
2021/05/24 01:37:41;;;;;;;1.00;0.73;;;9.90;99.90;;;;;;5045258;28;20177;-78
2021/05/24 01:40:07;;;;;;;0.90;0.60;;;9.90;99.90;;;;;;5045346;28;20246;-78
2021/05/24 01:42:32;;;;;;;0.70;0.70;;;9.80;99.90;;;;;;5044807;28;20212;-78
2021/05/24 01:44:58;;;;;;;0.90;0.80;;;9.80;99.90;;;;;;5060757;28;20186;-80
2021/05/24 01:47:24;;;;;;;0.87;0.50;;;9.80;99.90;;;;;;5056961;28;20548;-80
2021/05/24 01:49:50;;;;;;;1.13;0.80;;;9.70;99.90;;;;;;5040120;28;20204;-79
2021/05/24 01:52:17;;;;;;;1.37;0.90;;;9.70;99.90;;;;;;5049687;28;20181;-80
2021/05/24 01:54:43;;;;;;;0.70;0.60;;;9.60;99.90;;;;;;5056029;28;20194;-80
2021/05/24 01:57:09;;;;;;;0.67;0.60;;;9.60;99.90;;;;;;5073317;28;20161;-80
2021/05/24 01:59:35;;;;;;;0.83;0.70;;;9.60;99.90;;;;;;5055442;28;20199;-79
2021/05/24 02:02:01;;;;;;;0.70;0.70;;;9.60;99.90;;;;;;5040965;28;20661;-80
2021/05/24 02:04:27;;;;;;;3.40;0.83;;;9.60;99.90;;;;;;5041522;28;20193;-79
2021/05/24 02:06:52;;;;;;;1.53;0.70;;;9.60;99.90;;;;;;5058127;28;20187;-79
2021/05/24 02:09:18;;;;;;;1.00;0.50;;;9.60;99.90;;;;;;5057051;28;20216;-79
2021/05/24 02:11:43;;;;;;;1.10;0.60;;;9.60;99.90;;;;;;5040864;28;20191;-80
2021/05/24 02:14:09;;;;;;;2.00;0.60;;;9.70;99.90;;;;;;5056777;28;20478;-80
2021/05/24 02:16:40;;;;;;;1.13;0.60;;;9.70;99.90;;;;;;5056941;28;20177;-80
2021/05/24 02:19:09;;;;;;;3.23;0.70;;;9.70;99.90;;;;;;5040040;28;20188;-79
2021/05/24 02:21:36;;;;;;;0.80;0.63;;;9.70;99.90;;;;;;5056815;28;20180;-79
2021/05/24 02:24:03;;;;;;;0.50;0.50;;;9.80;99.90;;;;;;5057339;28;20203;-79
2021/05/24 02:26:28;;;;;;;0.67;0.60;;;9.80;99.90;;;;;;5057091;28;20188;-79
2021/05/24 02:28:54;;;;;;;0.63;0.60;;;9.90;99.90;;;;;;5039818;28;20233;-79
2021/05/24 02:31:20;;;;;;;0.90;0.80;;;9.90;99.90;;;;;;5040265;28;20203;-80
2021/05/24 02:33:46;;;;;;;0.80;0.73;;;9.90;99.90;;;;;;5040129;28;20644;-79
2021/05/24 02:36:12;;;;;;;0.50;0.50;;;10.00;99.90;;;;;;5040435;28;20229;-80
2021/05/24 02:38:38;;;;;;;0.57;0.57;;;10.00;99.90;;;;;;5057149;28;20197;-79
2021/05/24 02:41:03;;;;;;;0.60;0.60;;;10.00;99.90;;;;;;5039963;28;20204;-79
2021/05/24 02:43:29;;;;;;;1.23;0.63;;;10.00;99.90;;;;;;5039962;28;20205;-79
2021/05/24 02:45:54;;;;;;;1.03;0.60;;;10.10;99.90;;;;;;5055940;28;20235;-78
2021/05/24 02:48:20;;;;;;;0.70;0.70;;;10.10;99.90;;;;;;5038637;28;20212;-78
2021/05/24 02:50:46;;;;;;;0.97;0.83;;;10.10;99.90;;;;;;5037629;28;20200;-78
2021/05/24 02:53:11;;;;;;;0.70;0.70;;;10.10;99.90;;;;;;5054189;28;20286;-77
2021/05/24 02:55:38;;;;;;;2.53;0.70;;;10.10;99.90;;;;;;5037524;28;20549;-77
2021/05/24 02:58:03;;;;;;;1.47;0.60;;;10.10;99.90;;;;;;5054129;28;20690;-78
2021/05/24 03:00:29;;;;;;;0.77;0.57;;;10.10;99.90;;;;;;5054067;28;20208;-77
2021/05/24 03:02:55;;;;;;;1.93;0.50;;;10.10;99.90;;;;;;5054162;28;20676;-77
2021/05/24 03:05:21;;;;;;;0.77;0.60;;;10.10;99.90;;;;;;5054283;28;20337;-78
2021/05/24 03:07:48;;;;;;;0.77;0.50;;;10.10;99.90;;;;;;5054008;28;20183;-77
2021/05/24 03:10:14;;;;;;;0.87;0.57;;;10.10;99.90;;;;;;5070773;28;20207;-77
2021/05/24 03:12:40;;;;;;;0.60;0.60;;;10.00;99.90;;;;;;5037595;28;20180;-78
2021/05/24 03:15:06;;;;;;;1.17;0.70;;;10.00;99.90;;;;;;5055624;28;20178;-78
2021/05/24 03:17:32;;;;;;;0.77;0.60;;;10.00;99.90;;;;;;5057826;28;20184;-77
2021/05/24 03:19:58;;;;;;;0.70;0.60;;;10.00;99.90;;;;;;5073922;28;20207;-78
2021/05/24 03:22:24;;;;;;;0.70;0.60;;;10.00;99.90;;;;;;5057723;28;20174;-78
2021/05/24 03:24:49;;;;;;;0.60;0.50;;;10.00;99.90;;;;;;5057385;28;20658;-77
2021/05/24 03:27:15;;;;;;;0.50;0.50;;;10.00;99.90;;;;;;5074040;28;20180;-77
2021/05/24 03:29:40;;;;;;;0.97;0.40;;;10.10;99.90;;;;;;5057208;28;20219;-78
2021/05/24 03:32:06;;;;;;;2.10;0.60;;;10.10;99.90;;;;;;5074047;28;20179;-78
2021/05/24 03:34:32;;;;;;;1.13;0.60;;;10.10;99.90;;;;;;5057569;28;20180;-78
2021/05/24 03:36:58;;;;;;;0.90;0.60;;;10.10;99.90;;;;;;5057300;28;20180;-77
2021/05/24 03:39:23;;;;;;;1.13;0.77;;;10.10;99.90;;;;;;5039910;28;20197;-78
2021/05/24 03:41:49;;;;;;;0.60;0.60;;;10.10;99.90;;;;;;5073627;28;20218;-77
2021/05/24 03:44:14;;;;;;;2.37;0.70;;;10.10;99.90;;;;;;5074008;28;20185;-77
2021/05/24 03:46:40;;;;;;;1.63;0.70;;;10.10;99.90;;;;;;5040546;28;20191;-77
2021/05/24 03:49:06;;;;;;;0.90;0.60;;;10.10;99.90;;;;;;5073767;28;20220;-77
2021/05/24 03:51:31;;;;;;;2.37;0.57;;;10.20;99.90;;;;;;5057017;28;20242;-77
2021/05/24 03:53:57;;;;;;;1.70;0.60;;;10.20;99.90;;;;;;5056897;28;20202;-78
2021/05/24 03:56:23;;;;;;;1.30;0.50;;;10.30;99.90;;;;;;5074972;28;20195;-78
2021/05/24 03:58:49;;;;;;;1.00;0.60;;;10.30;99.90;;;;;;5056683;28;20177;-78
2021/05/24 04:01:14;;;;;;;0.70;0.50;;;10.30;99.90;;;;;;5057236;28;20199;-77
2021/05/24 04:03:40;;;;;;;0.50;0.50;;;10.30;99.90;;;;;;5073975;28;20212;-78
2021/05/24 04:06:07;;;;;;;0.93;0.53;;;10.40;99.90;;;;;;5057240;28;20185;-77
2021/05/24 04:08:38;;;;;;;2.00;0.50;;;10.40;99.90;;;;;;5057019;28;20201;-78
2021/05/24 04:11:04;;;;;;;0.50;0.50;;;10.50;99.90;;;;;;5057760;28;20197;-77
2021/05/24 04:13:30;;;;;;;1.07;0.50;;;10.50;99.90;;;;;;5057120;28;20218;-77
2021/05/24 04:15:57;;;;;;;0.50;0.50;;;10.60;99.90;;;;;;5056807;28;20170;-77
2021/05/24 04:18:25;;;;;;;1.50;0.60;;;10.60;99.90;;;;;;5073510;28;20306;-78
2021/05/24 04:20:51;;;;;;;0.63;0.53;;;10.70;99.90;;;;;;5040437;28;20576;-78
2021/05/24 04:23:17;;;;;;;0.40;0.40;;;10.70;99.90;;;;;;5056819;28;20187;-78
2021/05/24 04:25:43;;;;;;;0.47;0.37;;;10.80;99.90;;;;;;5056745;28;20214;-77
2021/05/24 04:28:08;;;;;;;0.43;0.40;;;10.90;99.90;;;;;;5057011;28;20204;-77
2021/05/24 04:30:34;;;;;;;1.07;0.57;;;10.90;99.90;;;;;;5039796;28;20197;-78
2021/05/24 04:33:00;;;;;;;0.50;0.40;;;10.90;99.90;;;;;;5073331;28;20173;-77
2021/05/24 04:35:25;;;;;;;1.43;0.40;;;11.00;99.90;;;;;;5056674;28;20173;-78
2021/05/24 04:37:51;;;;;;;0.40;0.40;;;11.10;99.90;;;;;;5056257;28;20173;-77
2021/05/24 04:40:16;;;;;;;0.50;0.50;;;11.20;99.90;;;;;;5056222;28;20205;-78
2021/05/24 04:42:42;;;;;;;0.30;0.30;;;11.20;99.90;;;;;;5056587;28;20178;-78
2021/05/24 04:45:08;;;;;;;1.73;0.40;;;11.30;99.90;;;;;;5041155;28;20181;-79
2021/05/24 04:47:33;;;;;;;0.50;0.50;;;11.40;99.90;;;;;;5060184;28;20657;-79
2021/05/24 04:49:59;;;;;;;0.63;0.50;;;11.40;99.90;;;;;;5076276;28;20216;-79
2021/05/24 04:52:25;;;;;;;0.77;0.53;;;11.40;99.90;;;;;;5059696;28;20246;-79
2021/05/24 04:54:51;;;;;;;0.67;0.40;;;11.50;99.90;;;;;;5059594;28;20170;-80
2021/05/24 04:57:17;;;;;;;0.60;0.33;;;11.50;99.90;;;;;;5059990;28;20192;-79
2021/05/24 04:59:42;;;;;;;0.83;0.60;;;11.60;99.90;;;;;;5059476;28;20222;-79
2021/05/24 05:02:08;;;;;;;0.70;0.50;;;11.60;99.90;;;;;;5059987;28;20276;-79
2021/05/24 05:04:33;;;;;;;0.70;0.70;;;11.60;99.90;;;;;;5060328;28;20185;-80
2021/05/24 05:06:59;;;;;;;0.40;0.40;;;11.60;99.90;;;;;;5060549;28;20192;-79
2021/05/24 05:09:27;;;;;;;0.70;0.50;;;11.60;99.90;;;;;;5043777;28;20216;-79
2021/05/24 05:11:53;;;;;;;0.40;0.40;;;11.70;99.90;;;;;;5076173;28;20173;-79
2021/05/24 05:14:19;;;;;;;1.40;0.70;;;11.70;99.90;;;;;;5059359;28;20495;-79
2021/05/24 05:16:45;;;;;;;0.90;0.40;;;11.80;99.90;;;;;;5043250;28;20216;-79
2021/05/24 05:19:10;;;;;;;0.50;0.50;;;11.90;99.90;;;;;;5059107;28;20184;-79
2021/05/24 05:21:36;;;;;;;0.53;0.50;;;12.10;99.90;;;;;;5058851;28;20169;-79
2021/05/24 05:24:02;;;;;;;0.40;0.40;;;12.20;99.90;;;;;;5059600;28;20181;-79
2021/05/24 05:26:27;;;;;;;1.37;0.50;;;12.30;99.90;;;;;;5059697;28;20177;-80
2021/05/24 05:28:53;;;;;;;0.30;0.30;;;12.50;99.90;;;;;;5059075;28;20201;-80
2021/05/24 05:31:18;;;;;;;2.27;0.57;;;12.70;99.90;;;;;;5061471;28;20678;-79
2021/05/24 05:33:44;;;;;;;2.00;0.40;;;12.80;99.90;;;;;;5061192;28;20180;-80
2021/05/24 05:36:09;;;;;;;2.00;0.50;;;12.90;99.90;;;;;;5061014;28;20267;-79
2021/05/24 05:38:35;;;;;;;0.47;0.40;;;13.00;99.90;;;;;;5076405;28;20224;-79
2021/05/24 05:41:01;;;;;;;0.60;0.40;;;13.30;99.90;;;;;;5059843;28;20198;-79
2021/05/24 05:43:27;;;;;;;0.50;0.40;;;14.10;99.90;;;;;;5059583;28;20637;-79
2021/05/24 05:45:52;;;;;;;1.07;0.43;;;14.70;99.90;;;;;;5042089;28;20173;-79
2021/05/24 05:48:18;;;;;;;0.40;0.40;;;14.80;99.90;;;;;;5076978;28;20198;-79
2021/05/24 05:50:45;;;;;;;0.40;0.30;;;15.00;99.90;;;;;;5058562;28;20193;-80
2021/05/24 05:53:10;;;;;;;1.63;0.40;;;15.10;99.90;;;;;;5059104;28;20526;-80
2021/05/24 05:55:36;;;;;;;1.10;0.40;;;15.30;99.90;;;;;;5075044;28;20227;-80
2021/05/24 05:58:01;;;;;;;1.37;0.27;;;15.40;99.90;;;;;;5042494;28;20674;-79
2021/05/24 06:00:27;;;;;;;0.77;0.43;;;15.50;99.90;;;;;;5058335;28;20649;-79
2021/05/24 06:02:53;;;;;;;0.20;0.20;;;15.80;99.90;;;;;;5059141;28;20180;-80
2021/05/24 06:05:18;;;;;;;0.30;0.30;;;16.30;99.90;;;;;;5058505;28;20236;-79
2021/05/24 06:07:46;;;;;;;0.93;0.40;;;16.70;99.90;;;;;;5058445;28;20182;-80
2021/05/24 06:10:13;;;;;;;0.60;0.50;;;17.50;99.90;;;;;;5058804;28;20205;-80
2021/05/24 06:12:38;;;;;;;0.33;0.33;;;18.10;99.90;;;;;;5042758;28;20661;-79
2021/05/24 06:15:05;;;;;;;0.77;0.40;;;18.60;99.90;;;;;;5059338;28;20174;-80
2021/05/24 06:17:31;;;;;;;0.87;0.30;;;18.60;99.90;;;;;;5042326;28;20269;-80
2021/05/24 06:19:56;;;;;;;1.63;0.50;;;18.30;99.90;;;;;;5041344;28;20224;-79
2021/05/24 06:22:22;;;;;;;0.60;0.30;;;17.50;99.90;;;;;;5058151;28;20174;-79
2021/05/24 06:24:47;;;;;;;0.43;0.40;;;17.00;99.90;;;;;;5062593;28;20173;-79
2021/05/24 06:27:13;;;;;;;0.77;0.30;;;16.50;99.90;;;;;;5060559;28;20269;-79
2021/05/24 06:29:39;;;;;;;0.90;0.23;;;16.30;99.90;;;;;;5085967;28;20209;-80
2021/05/24 06:32:05;;;;;;;0.30;0.30;;;16.30;99.90;;;;;;5084906;28;20169;-80
2021/05/24 06:34:30;;;;;;;0.47;0.30;;;16.60;99.90;;;;;;5051652;28;20185;-80
2021/05/24 06:36:56;;;;;;;1.53;0.40;;;16.60;99.90;;;;;;5041485;28;20268;-79
2021/05/24 06:39:21;;;;;;;0.57;0.30;;;16.70;99.90;;;;;;5057251;28;20275;-80
2021/05/24 06:41:50;;;;;;;0.40;0.40;;;16.80;99.90;;;;;;5072347;28;20188;-79
2021/05/24 06:44:16;;;;;;;0.50;0.30;;;17.10;99.90;;;;;;5107039;28;20188;-80
2021/05/24 06:46:42;;;;;;;1.07;0.40;;;17.20;99.90;;;;;;5098301;28;20637;-79
2021/05/24 06:49:07;;;;;;;0.30;0.30;;;17.40;99.90;;;;;;5096990;28;20206;-79
2021/05/24 06:51:33;;;;;;;0.80;0.50;;;17.10;99.90;;;;;;5119984;28;20628;-79
2021/05/24 06:53:59;;;;;;;0.30;0.30;;;17.20;99.90;;;;;;5102071;28;20220;-79
2021/05/24 06:56:24;;;;;;;0.30;0.30;;;17.20;99.90;;;;;;5083219;28;20189;-78
2021/05/24 06:58:50;;;;;;;0.37;0.30;;;17.40;99.90;;;;;;5078629;28;20199;-80
2021/05/24 07:01:15;;;;;;;1.43;0.47;;;17.40;99.90;;;;;;5076310;28;20272;-76
2021/05/24 07:03:41;;;;;;;0.30;0.30;;;17.60;99.90;;;;;;5075077;28;20181;-78
2021/05/24 07:06:06;;;;;;;0.50;0.30;;;18.10;99.90;;;;;;5077688;28;20286;-78
2021/05/24 07:08:32;;;;;;;0.27;0.27;;;18.30;99.90;;;;;;5077711;28;20205;-79
2021/05/24 07:10:58;;;;;;;0.60;0.40;;;18.50;99.90;;;;;;5080330;28;20197;-78
2021/05/24 07:13:24;;;;;;;0.97;0.30;;;18.30;99.90;;;;;;5077428;28;20193;-78
2021/05/24 07:15:49;;;;;;;0.40;0.30;;;18.30;99.90;;;;;;5079608;28;20182;-81
2021/05/24 07:18:15;;;;;;;0.93;0.23;;;18.50;99.90;;;;;;5078310;28;20177;-81
2021/05/24 07:20:41;;;;;;;1.13;0.30;;;18.60;99.90;;;;;;5084993;28;20320;-80
2021/05/24 07:23:06;;;;;;;2.00;0.30;;;18.50;99.90;;;;;;5053946;28;20180;-79
2021/05/24 07:25:32;;;;;;;0.20;0.20;;;18.20;99.90;;;;;;5076125;28;20580;-80
2021/05/24 07:27:57;;;;;;;0.20;0.20;;;18.30;99.90;;;;;;5056633;28;20221;-79
2021/05/24 07:30:23;;;;;;;0.40;0.30;;;18.60;99.90;;;;;;5071884;28;20197;-79
2021/05/24 07:32:48;;;;;;;0.67;0.20;;;18.70;99.90;;;;;;5084586;28;20237;-80
2021/05/24 07:35:14;;;;;;;1.17;0.30;;;18.80;99.90;;;;;;5091134;28;20169;-79
2021/05/24 07:37:39;;;;;;;0.30;0.23;;;18.90;99.90;;;;;;5116788;28;20542;-80
2021/05/24 07:40:06;;;;;;;0.80;0.57;;;19.20;99.90;;;;;;5068750;28;20216;-80
2021/05/24 07:42:32;;;;;;;0.83;0.30;;;19.40;99.90;;;;;;5081558;28;20318;-81
2021/05/24 07:44:57;;;;;;;0.83;0.30;;;19.40;99.90;;;;;;5081265;28;20222;-80
2021/05/24 07:47:23;;;;;;;0.87;0.27;;;19.50;99.90;;;;;;5052950;28;20174;-81
2021/05/24 07:49:48;;;;;;;0.83;0.40;;;19.10;99.90;;;;;;5080046;28;20209;-81
2021/05/24 07:52:14;;;;;;;1.50;0.30;;;19.10;99.90;;;;;;5079782;28;20533;-78
2021/05/24 07:54:40;;;;;;;1.80;0.40;;;19.40;99.90;;;;;;5079293;28;20713;-79
2021/05/24 07:57:06;;;;;;;1.00;0.20;;;19.60;99.90;;;;;;5054959;28;20177;-80
2021/05/24 07:59:31;;;;;;;0.60;0.30;;;19.60;99.90;;;;;;5043692;28;20597;-83
2021/05/24 08:01:59;;;;;;;0.50;0.30;;;19.70;99.90;;;;;;5060100;28;20181;-79
2021/05/24 08:04:25;;;;;;;0.30;0.20;;;19.60;99.90;;;;;;5060567;28;20252;-80
2021/05/24 08:06:50;;;;;;;0.20;0.20;;;19.70;99.90;;;;;;5059419;28;20209;-78
2021/05/24 08:09:16;;;;;;;0.87;0.40;;;19.60;99.90;;;;;;5058479;28;20338;-78
2021/05/24 08:11:42;;;;;;;0.40;0.30;;;19.80;99.90;;;;;;5060748;28;20177;-79
2021/05/24 08:14:08;;;;;;;0.23;0.23;;;19.80;99.90;;;;;;5064607;28;20199;-82
2021/05/24 08:16:34;;;;;;;2.03;0.40;;;19.70;99.90;;;;;;5079447;28;20169;-82
2021/05/24 08:19:00;;;;;;;0.50;0.20;;;19.70;99.90;;;;;;5061628;28;20177;-79
2021/05/24 08:21:25;;;;;;;0.53;0.20;;;19.60;99.90;;;;;;5042995;28;20203;-80
2021/05/24 08:23:51;;;;;;;0.43;0.33;;;19.80;99.90;;;;;;5059538;28;20211;-80
2021/05/24 08:26:17;;;;;;;0.37;0.30;;;19.90;99.90;;;;;;5101447;28;20177;-80
2021/05/24 08:28:42;;;;;;;0.50;0.20;;;20.10;99.90;;;;;;5084219;28;20206;-81
2021/05/24 08:31:09;;;;;;;0.50;0.20;;;20.30;99.90;;;;;;5072557;28;20635;-79
2021/05/24 08:33:35;;;;;;;0.50;0.30;;;20.20;99.90;;;;;;5059687;28;20182;-81
2021/05/24 08:36:00;;;;;;;0.43;0.20;;;20.30;99.90;;;;;;5059486;28;20587;-80
2021/05/24 08:38:26;;;;;;;0.50;0.23;;;20.30;99.90;;;;;;5075417;28;20697;-79
2021/05/24 08:40:52;;;;;;;5.07;0.40;;;20.40;99.90;;;;;;5085418;28;20302;-80
2021/05/24 08:43:18;;;;;;;1.10;0.40;;;20.20;99.90;;;;;;5073435;28;20176;-79
2021/05/24 08:45:44;;;;;;;2.10;0.50;;;20.10;99.90;;;;;;5088041;28;20180;-80
2021/05/24 08:48:10;;;;;;;0.63;0.30;;;20.30;99.90;;;;;;5062624;28;20215;-79
2021/05/24 08:50:36;;;;;;;1.23;0.20;;;20.20;99.90;;;;;;5080359;28;20193;-79
2021/05/24 08:53:05;;;;;;;2.20;0.30;;;20.00;99.90;;;;;;5080391;28;20177;-79
2021/05/24 08:55:31;;;;;;;0.70;0.30;;;19.90;99.90;;;;;;5065432;28;20203;-82
2021/05/24 08:57:56;;;;;;;0.90;0.23;;;20.00;99.90;;;;;;5064383;28;20181;-79
2021/05/24 09:00:22;;;;;;;0.57;0.37;;;19.80;99.90;;;;;;5064185;28;20197;-79
2021/05/24 09:02:52;;;;;;;0.20;0.20;;;19.60;99.90;;;;;;5063449;28;20258;-79
2021/05/24 09:05:18;;;;;;;0.20;0.20;;;19.70;99.90;;;;;;5082250;28;20552;-79
2021/05/24 09:07:46;;;;;;;0.40;0.23;;;19.90;99.90;;;;;;5064760;28;20230;-78
2021/05/24 09:10:12;;;;;;;0.80;0.40;;;20.10;99.90;;;;;;5098334;28;20558;-79
2021/05/24 09:12:38;;;;;;;1.90;0.20;;;20.20;99.90;;;;;;5063901;28;20203;-79
2021/05/24 09:15:07;;;;;;;0.67;0.30;;;20.00;99.90;;;;;;5064791;28;20184;-79
2021/05/24 09:18:03;;;;;;;0.40;0.30;;;19.80;99.90;;;;;;5061450;28;20173;-80
2021/05/24 09:20:39;;;;;;;1.63;0.27;;;19.60;99.90;;;;;;5079501;28;20676;-80
2021/05/24 09:23:15;;;;;;;1.37;0.20;;;19.70;99.90;;;;;;5100577;28;20180;-80
2021/05/24 09:26:00;;;;;;;0.53;0.30;;;19.90;99.90;;;;;;5084588;28;20176;-79
2021/05/24 09:28:39;;;;;;;0.43;0.23;;;19.90;99.90;;;;;;5073052;28;20223;-80
2021/05/24 09:31:11;;;;;;;0.30;0.30;;;20.30;99.90;;;;;;5094204;28;20658;-80
2021/05/24 09:33:42;;;;;;;0.20;0.20;;;20.20;99.90;;;;;;5113858;28;20168;-80
2021/05/24 09:36:08;;;;;;;0.30;0.30;;;19.90;99.90;;;;;;5075449;28;20199;-81
2021/05/24 09:38:38;;;;;;;0.23;0.20;;;19.80;99.90;;;;;;5058192;28;20197;-82
2021/05/24 09:41:05;;;;;;;1.30;0.20;;;19.80;99.90;;;;;;5057948;28;20197;-82
2021/05/24 09:43:38;;;;;;;0.30;0.30;;;19.70;99.90;;;;;;5076989;28;20178;-80
2021/05/24 09:46:09;;;;;;;0.87;0.30;;;19.60;99.90;;;;;;5080598;28;20741;-80
2021/05/24 09:48:35;;;;;;;0.73;0.30;;;19.40;99.90;;;;;;5072030;28;20618;-81
2021/05/24 09:51:05;;;;;;;1.60;0.30;;;19.30;99.90;;;;;;5072155;28;20192;-80
2021/05/24 09:53:31;;;;;;;1.43;0.60;;;19.10;99.90;;;;;;5065644;28;20164;-78
2021/05/24 09:56:05;;;;;;;0.77;0.40;;;18.90;99.90;;;;;;5081384;28;20168;-81
2021/05/24 09:58:31;;;;;;;0.87;0.30;;;18.80;99.90;;;;;;5059563;28;20180;-81
2021/05/24 10:01:13;;;;;;;0.30;0.30;;;18.90;99.90;;;;;;5041145;28;20723;-81
2021/05/24 10:03:40;;;;;;;0.50;0.30;;;19.00;99.90;;;;;;5061386;28;20249;-81
2021/05/24 10:06:06;;;;;;;1.90;0.40;;;19.00;99.90;;;;;;5060157;28;20169;-81
2021/05/24 10:08:32;;;;;;;0.87;0.30;;;19.00;99.90;;;;;;5060578;28;20205;-81
2021/05/24 10:10:57;;;;;;;0.53;0.27;;;19.00;99.90;;;;;;5060583;28;20623;-81
2021/05/24 10:13:24;;;;;;;0.43;0.27;;;19.00;99.90;;;;;;5044132;28;20176;-82
2021/05/24 10:15:54;;;;;;;0.10;0.10;;;19.00;99.90;;;;;;5060079;28;20166;-81
2021/05/24 10:18:20;;;;;;;0.60;0.20;;;19.10;99.90;;;;;;5061030;28;20677;-81
2021/05/24 10:20:45;;;;;;;0.40;0.30;;;19.20;99.90;;;;;;5056159;28;20268;-82
2021/05/24 10:23:11;;;;;;;0.50;0.30;;;19.10;99.90;;;;;;5056426;28;20178;-82
2021/05/24 10:25:37;;;;;;;1.90;0.30;;;19.00;99.90;;;;;;5073126;28;20200;-82
2021/05/24 10:28:02;;;;;;;0.63;0.30;;;18.70;99.90;;;;;;5056421;28;20232;-81
2021/05/24 10:30:28;;;;;;;1.37;0.50;;;18.60;99.90;;;;;;5055858;28;20197;-81
2021/05/24 10:32:57;;;;;;;0.77;0.40;;;18.50;99.90;;;;;;5057090;28;20557;-81
2021/05/24 10:35:43;;;;;;;0.40;0.40;;;18.50;99.90;;;;;;5074974;28;20218;-87
2021/05/24 10:38:32;;;;;;;0.33;0.30;;;18.60;99.90;;;;;;5073835;28;20250;-82
2021/05/24 10:41:13;;;;;;;0.50;0.23;;;18.70;99.90;;;;;;5058185;28;20309;-81
2021/05/24 10:43:42;;;;;;;3.37;0.47;;;18.70;99.90;;;;;;5058503;28;20182;-81
2021/05/24 10:46:26;;;;;;;0.60;0.30;;;18.70;99.90;;;;;;5075592;28;20260;-79
2021/05/24 10:49:22;;;;;;;2.23;0.30;;;18.70;99.90;;;;;;5075403;28;20205;-81
2021/05/24 10:51:47;;;;;;;1.03;0.40;;;18.60;99.90;;;;;;5058467;28;20256;-81
2021/05/24 10:54:22;;;;;;;0.60;0.40;;;18.60;99.90;;;;;;5095199;28;20200;-78
2021/05/24 10:56:59;;;;;;;1.63;0.30;;;18.70;99.90;;;;;;5094051;28;20238;-78
2021/05/24 10:59:47;;;;;;;1.40;0.40;;;18.80;99.90;;;;;;5092174;28;20184;-78
2021/05/24 11:02:26;;;;;;;1.27;0.37;;;19.00;99.90;;;;;;5093002;28;20183;-77
2021/05/24 11:05:01;;;;;;;0.50;0.40;;;19.10;99.90;;;;;;5076132;28;20165;-77
2021/05/24 11:07:39;;;;;;;0.60;0.30;;;19.10;99.90;;;;;;5076109;28;20188;-78
2021/05/24 11:10:14;;;;;;;1.03;0.40;;;19.10;99.90;;;;;;5095326;28;20774;-78
2021/05/24 11:12:43;;;;;;;1.70;0.40;;;19.00;99.90;;;;;;5097985;28;20334;-79
2021/05/24 11:15:24;;;;;;;0.50;0.30;;;18.90;99.90;;;;;;5064500;28;20528;-79
2021/05/24 11:17:59;;;;;;;0.53;0.30;;;18.80;99.90;;;;;;5065389;28;20661;-79
2021/05/24 11:20:36;;;;;;;0.20;0.20;;;18.90;99.90;;;;;;5098009;28;20677;-79
2021/05/24 11:25:59;;;;;;;0.63;0.30;;;18.80;99.90;;;;;;5100823;28;20161;-79
2021/05/24 11:28:38;;;;;;;1.20;0.50;;;18.80;99.90;;;;;;5082924;28;20223;-79
2021/05/24 11:31:08;;;;;;;0.40;0.30;;;18.70;99.90;;;;;;5064698;28;20195;-78
2021/05/24 11:33:41;;;;;;;0.37;0.37;;;18.60;99.90;;;;;;5066083;28;20720;-79
2021/05/24 11:36:07;;;;;;;0.93;0.40;;;18.40;99.90;;;;;;5084139;28;20200;-78
2021/05/24 11:38:33;;;;;;;1.50;0.33;;;18.50;99.90;;;;;;5068005;28;20268;-79
2021/05/24 11:41:17;;;;;;;1.40;0.40;;;18.50;99.90;;;;;;5067559;28;20240;-79
2021/05/24 11:43:43;;;;;;;0.40;0.30;;;18.50;99.90;;;;;;5084132;28;20184;-78
2021/05/24 11:46:10;;;;;;;0.50;0.30;;;18.50;99.90;;;;;;5084386;28;20173;-78
2021/05/24 11:48:45;;;;;;;0.50;0.40;;;18.40;99.90;;;;;;5101629;28;20249;-79
2021/05/24 11:51:14;;;;;;;0.80;0.40;;;18.40;99.90;;;;;;5084847;28;20199;-79
2021/05/24 11:54:07;;;;;;;0.40;0.40;;;18.30;99.90;;;;;;5102134;28;20173;-78
2021/05/24 11:56:46;;;;;;;0.60;0.37;;;18.30;99.90;;;;;;5069289;28;20177;-79
2021/05/24 11:59:13;;;;;;;1.23;0.40;;;18.40;99.90;;;;;;5085658;28;20172;-79
2021/05/24 12:01:40;;;;;;;1.13;0.50;;;18.40;99.90;;;;;;5068268;28;20181;-79
2021/05/24 12:04:07;;;;;;;0.40;0.30;;;18.10;99.90;;;;;;5085683;28;20199;-78
2021/05/24 12:06:44;;;;;;;0.70;0.50;;;17.70;99.90;;;;;;5084287;28;20235;-78
2021/05/24 12:09:10;;;;;;;0.50;0.40;;;17.30;99.90;;;;;;5065264;28;20273;-79
2021/05/24 12:11:41;;;;;;;0.60;0.33;;;16.90;99.90;;;;;;5094485;28;20208;-80
2021/05/24 12:14:09;;;;;;;2.00;0.50;;;16.70;99.90;;;;;;5069044;28;20234;-79
2021/05/24 12:16:35;;;;;;;0.63;0.40;;;16.60;99.90;;;;;;5082672;28;20242;-78
2021/05/24 12:19:01;;;;;;;1.03;0.67;;;16.60;99.90;;;;;;5065172;28;20651;-78
2021/05/24 12:21:33;;;;;;;0.87;0.50;;;16.50;99.90;;;;;;5081746;28;20720;-79
2021/05/24 12:24:00;;;;;;;0.77;0.40;;;16.50;99.90;;;;;;5099652;28;20192;-78
2021/05/24 12:26:26;;;;;;;0.60;0.50;;;16.50;99.90;;;;;;5080297;28;20595;-79
2021/05/24 12:28:51;;;;;;;0.90;0.50;;;16.50;99.90;;;;;;5076527;28;20283;-79
2021/05/24 12:31:18;;;;;;;1.00;0.40;;;16.50;99.90;;;;;;5042443;28;20799;-79
2021/05/24 12:33:44;;;;;;;1.23;0.30;;;16.50;99.90;;;;;;5054067;28;20199;-78
2021/05/24 12:36:10;;;;;;;0.43;0.40;;;16.50;99.90;;;;;;5069431;28;20654;-78
2021/05/24 12:38:44;;;;;;;0.50;0.50;;;16.50;99.90;;;;;;5062089;28;20193;-78
2021/05/24 12:41:10;;;;;;;1.37;0.50;;;16.50;99.90;;;;;;5045943;28;20755;-79
2021/05/24 12:43:51;;;;;;;0.40;0.40;;;16.60;99.90;;;;;;5050050;28;20184;-80
2021/05/24 12:46:18;;;;;;;0.50;0.50;;;16.50;99.90;;;;;;5055537;28;20238;-79
2021/05/24 12:48:44;;;;;;;0.97;0.40;;;16.50;99.90;;;;;;5079958;28;20185;-80
2021/05/24 12:51:17;;;;;;;0.83;0.50;;;16.40;99.90;;;;;;5084051;28;20218;-80
2021/05/24 12:54:13;;;;;;;1.70;0.30;;;16.40;99.90;;;;;;5049408;28;20235;-81